10/04/05 - 15h:37mDenunciar

Dassault Mirage 2000

De acordo com as palavras do fotógrafo, "até hoje não sei como ele conseguiu livrar o muro". Por incrível que pareça não se trata de montagem, tendo sido capturada durante um pouso na base aérea de Waddington, Inglaterra. Imagem de Ian Nightingale, retirada do site .





METAR SBPB 102000Z 06004KT 9999 FEW017 SCT090 BKN300 27/26 Q1007=

Comentários (1)

oslisergicos
1. oslisergicos 10/04/05 16:00

puts esta foto ta muito boa ,!!!!!!!!!
ei me manda ela depois
by marco

Fotos postadas a mais de 15 dias não podem receber comentários.